Time;durP1;ratioP1;P1;durP2;ratioP2;P2;SDS_P1;SDS_P2;PMS_P1;PMS_P2;Temp;Humidity;BMP_temperature;BMP_pressure;BME280_temperature;BME280_humidity;BME280_pressure;Samples;Min_cycle;Max_cycle;Signal;HPM_P1;HPM_P2
2021/12/06 00:00:47;;;;;;;10.00;5.78;;;;;;;-2.12;100.00;97950.19;4211191;27;20043;-72
2021/12/06 00:02:49;;;;;;;13.50;6.43;;;;;;;-2.14;100.00;97955.13;4209333;27;20336;-72
2021/12/06 00:04:49;;;;;;;9.43;5.93;;;;;;;-2.10;100.00;97956.09;4210839;27;20036;-72
2021/12/06 00:06:56;;;;;;;11.13;6.80;;;;;;;-2.11;100.00;97954.50;4209906;27;20832;-72
2021/12/06 00:08:56;;;;;;;13.00;6.55;;;;;;;-2.10;100.00;97954.19;4213185;27;20035;-72
2021/12/06 00:10:57;;;;;;;21.17;8.20;;;;;;;-2.12;100.00;97961.81;4209731;27;20072;-72
2021/12/06 00:12:57;;;;;;;19.48;8.82;;;;;;;-2.10;100.00;97973.16;4209805;27;20091;-72
2021/12/06 00:14:58;;;;;;;12.30;6.72;;;;;;;-2.14;100.00;97980.31;4210101;27;20056;-72
2021/12/06 00:17:01;;;;;;;19.65;8.57;;;;;;;-2.14;100.00;97974.91;4211407;27;20036;-72
2021/12/06 00:19:03;;;;;;;15.35;7.60;;;;;;;-2.16;100.00;97977.09;4205932;27;20040;-72
2021/12/06 00:21:05;;;;;;;11.70;6.15;;;;;;;-2.13;100.00;97981.13;4209763;27;20044;-72
2021/12/06 00:23:05;;;;;;;8.73;5.72;;;;;;;-2.12;100.00;97977.28;4211303;27;20047;-72
2021/12/06 00:25:09;;;;;;;13.27;6.68;;;;;;;-2.11;100.00;97982.41;4208682;27;20036;-72
2021/12/06 00:27:09;;;;;;;12.27;5.90;;;;;;;-2.11;100.00;97978.88;4209122;27;20568;-72
2021/12/06 00:29:10;;;;;;;10.23;6.25;;;;;;;-2.11;100.00;97976.97;4210206;27;20067;-72
2021/12/06 00:31:12;;;;;;;10.07;6.63;;;;;;;-2.09;100.00;97979.38;4208871;27;20119;-72
2021/12/06 00:33:12;;;;;;;10.40;5.65;;;;;;;-2.09;100.00;97977.47;4207175;27;20557;-72
2021/12/06 00:35:19;;;;;;;9.20;5.00;;;;;;;-2.08;100.00;97975.56;4211314;27;20068;-72
2021/12/06 00:37:23;;;;;;;9.90;5.70;;;;;;;-2.07;100.00;97982.56;4207995;27;20268;-72
2021/12/06 00:39:24;;;;;;;10.05;5.53;;;;;;;-2.09;100.00;97982.88;4210491;27;20493;-72
2021/12/06 00:41:25;;;;;;;11.88;6.18;;;;;;;-2.07;100.00;97979.88;4209010;27;20050;-72
2021/12/06 00:43:25;;;;;;;10.95;6.40;;;;;;;-2.11;100.00;97985.09;4209853;27;20426;-72
2021/12/06 00:45:26;;;;;;;12.15;5.80;;;;;;;-2.10;100.00;97984.00;4208689;27;20119;-72
2021/12/06 00:47:27;;;;;;;10.63;5.80;;;;;;;-2.10;100.00;97983.19;4210920;27;20326;-72
2021/12/06 00:49:28;;;;;;;13.70;5.60;;;;;;;-2.07;100.00;97996.13;4209410;27;20300;-72
2021/12/06 00:51:28;;;;;;;8.05;5.78;;;;;;;-2.07;100.00;97999.66;4208604;27;20036;-72
2021/12/06 00:53:29;;;;;;;11.32;6.22;;;;;;;-2.06;100.00;97997.75;4210303;27;20054;-72
2021/12/06 00:55:30;;;;;;;8.43;5.65;;;;;;;-2.02;100.00;97996.03;4206381;27;20103;-72
2021/12/06 00:57:30;;;;;;;8.93;5.78;;;;;;;-2.01;100.00;97998.41;4207482;27;20044;-72
2021/12/06 00:59:31;;;;;;;10.55;6.18;;;;;;;-1.99;100.00;97998.09;4206664;27;20790;-72
2021/12/06 01:01:32;;;;;;;9.45;5.75;;;;;;;-2.02;100.00;98007.66;4210630;27;20074;-72
2021/12/06 01:03:35;;;;;;;10.70;6.15;;;;;;;-2.01;100.00;98016.59;4207479;27;20036;-72
2021/12/06 01:05:36;;;;;;;7.25;5.32;;;;;;;-2.01;100.00;98006.56;4205447;27;20135;-72
2021/12/06 01:07:37;;;;;;;9.95;5.88;;;;;;;-1.99;100.00;98017.91;4207194;27;20441;-72
2021/12/06 01:09:39;;;;;;;9.70;6.25;;;;;;;-2.00;100.00;98016.28;4206934;27;20097;-72
2021/12/06 01:11:40;;;;;;;;;;;;;;;-1.95;100.00;98017.28;4207551;27;20040;-72
2021/12/06 01:13:40;;;;;;;11.05;6.22;;;;;;;-2.02;100.00;98021.22;4215176;28;19922;-72
2021/12/06 01:15:42;;;;;;;9.48;5.57;;;;;;;-1.98;100.00;98021.41;4211533;27;20032;-72
2021/12/06 01:17:42;;;;;;;8.25;5.15;;;;;;;-2.04;100.00;98026.16;4206644;27;20390;-72
2021/12/06 01:19:43;;;;;;;10.32;6.03;;;;;;;-2.08;100.00;98022.44;4205060;27;20040;-72
2021/12/06 01:21:51;;;;;;;9.10;5.38;;;;;;;-2.03;100.00;98033.19;4208613;27;20040;-72
2021/12/06 01:23:57;;;;;;;10.73;5.65;;;;;;;-2.00;100.00;98039.88;4211044;27;20040;-72
2021/12/06 01:41:03;;;;;;;10.60;5.93;;;;;;;-1.90;100.00;98039.66;4212636;27;20651;-72
2021/12/06 01:43:05;;;;;;;10.25;6.38;;;;;;;-1.92;100.00;98049.19;4204026;28;20040;-72
2021/12/06 01:45:07;;;;;;;11.55;5.75;;;;;;;-1.91;100.00;98046.16;4210002;27;20051;-72
2021/12/06 01:47:12;;;;;;;11.43;5.80;;;;;;;-1.92;100.00;98047.28;4210794;28;20044;-72
2021/12/06 01:49:14;;;;;;;8.15;5.18;;;;;;;-1.91;100.00;98048.09;4212328;27;20090;-72
2021/12/06 01:51:14;;;;;;;17.88;5.68;;;;;;;-1.92;100.00;98050.00;4206678;27;20457;-72
2021/12/06 01:53:15;;;;;;;9.35;5.47;;;;;;;-1.91;100.00;98051.59;4206625;27;20486;-72
2021/12/06 01:55:20;;;;;;;7.75;5.35;;;;;;;-1.90;100.00;98049.69;4206209;27;20051;-72
2021/12/06 01:57:22;;;;;;;7.50;4.63;;;;;;;-1.92;100.00;98049.19;4205196;27;20052;-72
2021/12/06 01:59:24;;;;;;;8.02;5.30;;;;;;;-1.89;100.00;98057.53;4206682;27;20476;-72
2021/12/06 02:01:25;;;;;;;10.23;5.72;;;;;;;-1.89;100.00;98052.13;4207205;27;20052;-72
2021/12/06 02:03:25;;;;;;;10.30;5.10;;;;;;;-1.92;100.00;98055.41;4206878;27;20058;-72
2021/12/06 02:05:26;;;;;;;9.80;5.60;;;;;;;-1.91;100.00;98051.59;4206337;27;20066;-72
2021/12/06 02:07:27;;;;;;;8.18;5.10;;;;;;;-1.91;100.00;98062.44;4206778;28;20048;-72
2021/12/06 02:09:29;;;;;;;8.52;5.53;;;;;;;-1.96;100.00;98057.16;4205202;27;20431;-72
2021/12/06 02:11:32;;;;;;;9.60;5.72;;;;;;;-1.94;100.00;98064.97;4212861;27;20039;-72
2021/12/06 02:13:42;;;;;;;9.20;5.60;;;;;;;-1.99;100.00;98065.88;4205308;28;20376;-72
2021/12/06 02:15:48;;;;;;;15.55;5.95;;;;;;;-1.94;100.00;98073.91;4208078;28;20127;-72
2021/12/06 02:17:58;;;;;;;8.75;5.20;;;;;;;-1.97;100.00;98074.53;4207296;27;20036;-72
2021/12/06 02:20:05;;;;;;;13.55;5.60;;;;;;;-2.00;100.00;98083.25;4209739;28;20043;-72
2021/12/06 02:22:08;;;;;;;10.18;5.85;;;;;;;-2.01;100.00;98073.53;4206658;28;20710;-72
2021/12/06 02:24:10;;;;;;;8.23;5.63;;;;;;;-2.03;100.00;98086.59;4206575;28;20039;-72
2021/12/06 02:26:11;;;;;;;11.15;6.45;;;;;;;-2.09;100.00;98083.19;4204507;27;20032;-72
2021/12/06 02:28:11;;;;;;;13.98;5.85;;;;;;;-2.08;100.00;98083.97;4206632;27;20097;-72
2021/12/06 02:30:14;;;;;;;10.60;6.07;;;;;;;-2.07;100.00;98099.13;4206092;28;20191;-72
2021/12/06 02:32:15;;;;;;;11.95;7.07;;;;;;;-2.10;100.00;98089.72;4205096;28;20319;-72
2021/12/06 02:34:15;;;;;;;11.05;5.75;;;;;;;-2.12;100.00;98097.34;4208057;28;20035;-72
2021/12/06 02:36:17;;;;;;;9.90;5.28;;;;;;;-2.12;100.00;98099.28;4212774;27;20052;-72
2021/12/06 02:38:17;;;;;;;10.40;5.95;;;;;;;-2.13;100.00;98103.09;4205144;28;20112;-72
2021/12/06 02:40:23;;;;;;;7.80;5.25;;;;;;;-2.11;100.00;98107.09;4205272;28;20032;-72
2021/12/06 02:42:25;;;;;;;11.75;5.90;;;;;;;-2.02;100.00;98105.25;4206281;28;20060;-72
2021/12/06 02:44:27;;;;;;;12.80;7.57;;;;;;;-1.96;100.00;98105.97;4214780;27;20515;-72
2021/12/06 02:46:28;;;;;;;8.27;5.22;;;;;;;-1.96;100.00;98103.25;4212486;27;20127;-72
2021/12/06 02:48:28;;;;;;;7.75;5.20;;;;;;;-1.98;100.00;98100.84;4213299;27;20079;-72
2021/12/06 02:50:35;;;;;;;8.40;5.78;;;;;;;-1.94;100.00;98111.06;4211581;27;20036;-72
2021/12/06 02:52:37;;;;;;;9.77;5.10;;;;;;;-1.98;100.00;98102.75;4209847;27;20052;-72
2021/12/06 02:54:39;;;;;;;9.88;5.43;;;;;;;-1.96;100.00;98107.88;4209792;27;20036;-72
2021/12/06 02:56:51;;;;;;;10.23;6.45;;;;;;;-1.99;100.00;98101.97;4207841;27;20071;-72
2021/12/06 02:58:58;;;;;;;9.48;5.53;;;;;;;-2.01;100.00;98106.84;4211333;27;20072;-72
2021/12/06 03:00:59;;;;;;;10.93;5.75;;;;;;;-1.98;100.00;98091.91;4212345;27;20395;-72
2021/12/06 03:02:59;;;;;;;15.88;7.18;;;;;;;-1.96;100.00;98094.31;4208874;27;20820;-72
2021/12/06 03:05:00;;;;;;;10.98;6.50;;;;;;;-1.97;100.00;98101.66;4210261;27;20302;-72
2021/12/06 03:07:01;;;;;;;10.57;6.65;;;;;;;-1.97;100.00;98104.34;4209595;27;20836;-72
2021/12/06 03:09:10;;;;;;;8.55;5.88;;;;;;;-1.98;100.00;98103.56;4206981;27;20036;-72
2021/12/06 03:11:17;;;;;;;11.82;7.00;;;;;;;-1.98;100.00;98114.41;4209444;27;20344;-71
2021/12/06 03:13:17;;;;;;;8.50;5.57;;;;;;;-1.95;100.00;98115.69;4209474;27;20484;-72
2021/12/06 03:15:18;;;;;;;12.05;6.15;;;;;;;-1.95;100.00;98121.13;4207869;27;20122;-72
2021/12/06 03:17:22;;;;;;;10.88;6.05;;;;;;;-1.95;100.00;98121.13;4212196;27;20487;-72
2021/12/06 03:19:22;;;;;;;10.65;6.25;;;;;;;-1.93;100.00;98127.03;4211730;27;20044;-72
2021/12/06 03:21:24;;;;;;;12.48;6.10;;;;;;;-1.88;100.00;98121.50;4208608;27;20398;-72
2021/12/06 03:23:25;;;;;;;11.88;6.75;;;;;;;-1.83;100.00;98123.28;4209486;27;20086;-72
2021/12/06 03:25:25;;;;;;;14.65;7.78;;;;;;;-1.86;100.00;98132.84;4214365;27;20044;-72
2021/12/06 03:27:26;;;;;;;10.68;7.32;;;;;;;-1.81;100.00;98131.94;4208792;27;20160;-72
2021/12/06 03:29:27;;;;;;;14.18;7.70;;;;;;;-1.84;100.00;98136.03;4209464;27;20048;-72
2021/12/06 03:31:28;;;;;;;11.95;7.63;;;;;;;-1.80;100.00;98138.97;4207919;27;20052;-71
2021/12/06 03:33:28;;;;;;;13.38;7.43;;;;;;;-1.77;100.00;98139.13;4209250;27;20047;-71
2021/12/06 03:35:29;;;;;;;10.38;7.03;;;;;;;-1.75;100.00;98136.13;4207774;27;20154;-72
2021/12/06 03:37:29;;;;;;;12.85;7.30;;;;;;;-1.72;100.00;98140.94;4211077;27;20071;-72
2021/12/06 03:39:38;;;;;;;13.52;8.57;;;;;;;-1.73;100.00;98137.44;4210560;27;20036;-72
2021/12/06 03:41:39;;;;;;;15.50;9.20;;;;;;;-1.70;100.00;98142.25;4207555;27;20036;-72
2021/12/06 03:43:41;;;;;;;17.48;8.90;;;;;;;-1.72;100.00;98139.03;4209475;27;20051;-72
2021/12/06 03:45:41;;;;;;;11.68;8.60;;;;;;;-1.70;100.00;98141.44;4207212;27;20127;-72
2021/12/06 03:47:41;;;;;;;34.38;16.70;;;;;;;-1.68;100.00;98139.22;4209638;27;20101;-72
2021/12/06 03:49:42;;;;;;;36.20;17.65;;;;;;;-1.67;100.00;98148.16;4206399;27;20032;-72
2021/12/06 03:51:45;;;;;;;46.08;22.38;;;;;;;-1.64;100.00;98144.84;4207913;27;20087;-72
2021/12/06 03:53:46;;;;;;;30.10;16.75;;;;;;;-1.64;100.00;98148.38;4209646;27;20050;-72
2021/12/06 03:55:47;;;;;;;26.65;14.45;;;;;;;-1.64;100.00;98148.38;4206907;27;20048;-72
2021/12/06 03:57:47;;;;;;;22.33;11.68;;;;;;;-1.61;100.00;98153.16;4208583;27;20040;-72
2021/12/06 03:59:49;;;;;;;19.90;9.68;;;;;;;-1.58;100.00;98154.44;4213062;27;20063;-72
2021/12/06 04:01:50;;;;;;;14.90;10.00;;;;;;;-1.57;100.00;98153.34;4209652;27;20047;-72
2021/12/06 04:03:51;;;;;;;16.52;9.50;;;;;;;-1.54;100.00;98158.97;4207572;27;20056;-71
2021/12/06 04:05:53;;;;;;;14.23;8.48;;;;;;;-1.54;100.00;98150.03;4211650;27;20124;-71
2021/12/06 04:07:54;;;;;;;18.45;9.88;;;;;;;-1.55;100.00;98143.81;4210163;27;20089;-71
2021/12/06 04:09:54;;;;;;;17.20;9.85;;;;;;;-1.53;100.00;98151.63;4207341;27;20027;-72
2021/12/06 04:11:55;;;;;;;21.42;12.00;;;;;;;-1.48;100.00;98160.47;4210681;27;20093;-72
2021/12/06 04:13:55;;;;;;;23.42;12.10;;;;;;;-1.43;100.00;98159.53;4210467;27;20035;-71
2021/12/06 04:15:57;;;;;;;21.83;11.00;;;;;;;-1.46;100.00;98158.25;4209871;27;20075;-71
2021/12/06 04:17:58;;;;;;;17.55;10.60;;;;;;;-1.47;100.00;98159.34;4210722;27;20169;-72
2021/12/06 04:19:59;;;;;;;17.70;10.52;;;;;;;-1.43;100.00;98162.25;4208917;27;20158;-71
2021/12/06 04:21:59;;;;;;;18.40;10.20;;;;;;;-1.40;100.00;98164.38;4212374;27;20065;-72
2021/12/06 04:24:00;;;;;;;20.65;11.25;;;;;;;-1.38;100.00;98167.56;4206830;27;20427;-72
2021/12/06 04:26:00;;;;;;;20.65;10.98;;;;;;;-1.40;100.00;98171.72;4208507;27;20119;-72
2021/12/06 04:28:05;;;;;;;14.85;9.05;;;;;;;-1.37;100.00;98176.50;4209152;27;20352;-72
2021/12/06 04:30:09;;;;;;;18.45;10.18;;;;;;;-1.37;100.00;98174.59;4211705;27;20023;-72
2021/12/06 04:32:10;;;;;;;20.13;10.02;;;;;;;-1.38;100.00;98174.91;4213554;27;20032;-72
2021/12/06 04:34:10;;;;;;;14.80;8.57;;;;;;;-1.34;100.00;98179.41;4208563;27;20025;-72
2021/12/06 04:36:11;;;;;;;16.27;8.95;;;;;;;-1.35;100.00;98183.22;4209714;27;20040;-72
2021/12/06 04:38:11;;;;;;;18.80;10.35;;;;;;;-1.35;100.00;98185.13;4209350;27;20491;-72
2021/12/06 04:40:13;;;;;;;18.88;10.18;;;;;;;-1.36;100.00;98183.53;4207900;27;20024;-72
2021/12/06 04:42:14;;;;;;;13.52;8.88;;;;;;;-1.36;100.00;98197.09;4209151;27;20291;-72
2021/12/06 04:44:14;;;;;;;15.88;9.38;;;;;;;-1.39;100.00;98203.16;4212141;27;20064;-72
2021/12/06 04:46:15;;;;;;;13.35;8.20;;;;;;;-1.37;100.00;98193.59;4209305;27;20061;-72
2021/12/06 04:48:16;;;;;;;13.30;7.90;;;;;;;-1.40;100.00;98196.94;4210915;27;20358;-72
2021/12/06 04:50:18;;;;;;;11.13;6.95;;;;;;;-1.35;100.00;98194.09;4209176;27;20043;-72
2021/12/06 04:52:19;;;;;;;11.00;6.97;;;;;;;-1.36;100.00;98195.19;4207090;27;20038;-72
2021/12/06 04:54:25;;;;;;;10.77;7.13;;;;;;;-1.38;100.00;98205.56;4211319;27;20064;-72
2021/12/06 04:56:36;;;;;;;10.32;6.75;;;;;;;-1.33;100.00;98208.13;4209006;27;20778;-72
2021/12/06 04:58:55;;;;;;;12.05;7.63;;;;;;;-1.34;100.00;98211.97;4204830;27;20054;-72
2021/12/06 05:01:01;;;;;;;10.93;6.50;;;;;;;-1.34;100.00;98201.09;4210383;27;20302;-72
2021/12/06 05:03:02;;;;;;;13.38;7.78;;;;;;;-1.34;100.00;98205.72;4210617;27;20129;-72
2021/12/06 05:05:08;;;;;;;14.57;8.93;;;;;;;-1.33;100.00;98212.75;4207722;27;20036;-72
2021/12/06 05:07:16;;;;;;;10.77;6.80;;;;;;;-1.35;100.00;98209.56;4206855;27;20502;-72
2021/12/06 05:09:22;;;;;;;13.20;6.78;;;;;;;-1.32;100.00;98207.06;4210173;27;20125;-72
2021/12/06 05:11:27;;;;;;;11.27;6.13;;;;;;;-1.32;100.00;98209.78;4209617;27;20032;-72
2021/12/06 05:13:29;;;;;;;13.18;7.45;;;;;;;-1.26;100.00;98226.72;4209260;27;20071;-72
2021/12/06 05:15:29;;;;;;;12.20;6.47;;;;;;;-1.29;100.00;98206.44;4210066;27;20496;-71
2021/12/06 05:17:30;;;;;;;12.05;6.72;;;;;;;-1.27;100.00;98212.34;4209686;27;20312;-71
2021/12/06 05:19:31;;;;;;;9.35;6.40;;;;;;;-1.29;100.00;98209.16;4206478;28;20223;-71
2021/12/06 05:21:35;;;;;;;11.35;6.18;;;;;;;-1.28;100.00;98210.75;4210391;27;20032;-71
2021/12/06 05:23:36;;;;;;;12.63;5.93;;;;;;;-1.27;100.00;98223.19;4205759;27;20048;-72
2021/12/06 05:25:36;;;;;;;12.93;6.55;;;;;;;-1.25;100.00;98220.97;4208871;27;20066;-72
2021/12/06 05:27:37;;;;;;;11.65;6.88;;;;;;;-1.27;100.00;98223.19;4212072;27;20105;-72
2021/12/06 05:29:38;;;;;;;11.90;6.40;;;;;;;-1.26;100.00;98219.38;4205648;27;20032;-72
2021/12/06 05:31:40;;;;;;;12.32;7.43;;;;;;;-1.23;100.00;98234.28;4210601;27;20050;-72
2021/12/06 05:33:46;;;;;;;13.82;8.30;;;;;;;-1.23;100.00;98235.06;4207989;27;20036;-72
2021/12/06 05:35:47;;;;;;;11.93;6.75;;;;;;;-1.21;100.00;98241.00;4207681;27;20315;-71
2021/12/06 05:37:50;;;;;;;15.15;7.65;;;;;;;-1.20;100.00;98241.78;4208762;27;20128;-71
2021/12/06 05:39:50;;;;;;;13.60;8.32;;;;;;;-1.18;100.00;98243.09;4208554;27;20098;-71
2021/12/06 05:41:51;;;;;;;12.45;8.27;;;;;;;-1.14;100.00;98246.81;4204265;28;20044;-72
2021/12/06 05:43:51;;;;;;;11.68;7.32;;;;;;;-1.10;100.00;98257.03;4209908;27;20384;-72
2021/12/06 05:45:52;;;;;;;16.88;7.32;;;;;;;-1.14;100.00;98260.38;4210339;27;20470;-72
2021/12/06 05:47:54;;;;;;;13.82;7.38;;;;;;;-1.19;100.00;98249.63;4207456;27;20048;-72
2021/12/06 05:49:54;;;;;;;13.20;6.68;;;;;;;-1.16;100.00;98265.31;4208964;27;20036;-72
2021/12/06 05:51:55;;;;;;;12.52;6.85;;;;;;;-1.15;100.00;98264.22;4208238;27;20048;-72
2021/12/06 05:53:55;;;;;;;15.73;7.63;;;;;;;-1.14;100.00;98270.44;4208642;27;20483;-72
2021/12/06 05:55:56;;;;;;;16.17;7.50;;;;;;;-1.16;100.00;98273.47;4205303;27;20423;-72
2021/12/06 05:58:00;;;;;;;21.52;8.23;;;;;;;-1.16;100.00;98273.47;4206101;27;20256;-72
2021/12/06 06:00:01;;;;;;;15.73;7.60;;;;;;;-1.17;100.00;98271.84;4205585;27;20583;-72
2021/12/06 06:02:01;;;;;;;19.67;7.95;;;;;;;-1.15;100.00;98276.97;4209240;27;20055;-72
2021/12/06 06:04:02;;;;;;;21.08;8.90;;;;;;;-1.18;100.00;98274.84;4211334;27;20038;-72
2021/12/06 06:06:03;;;;;;;23.83;9.25;;;;;;;-1.18;100.00;98270.22;4209450;27;20632;-72
2021/12/06 06:08:04;;;;;;;31.33;10.10;;;;;;;-1.13;100.00;98288.31;4206401;27;20051;-72
2021/12/06 06:10:06;;;;;;;31.97;10.07;;;;;;;-1.13;100.00;98278.28;4205157;27;20127;-72
2021/12/06 06:12:07;;;;;;;32.53;15.25;;;;;;;-1.14;100.00;98276.66;4205350;27;20100;-71
2021/12/06 06:14:08;;;;;;;33.90;13.15;;;;;;;-1.14;100.00;98282.09;4209755;27;20041;-71
2021/12/06 06:16:08;;;;;;;37.90;12.90;;;;;;;-1.13;100.00;98288.31;4209049;28;20427;-71
2021/12/06 06:18:09;;;;;;;35.70;11.85;;;;;;;-1.05;100.00;98297.66;4207715;28;20560;-71
2021/12/06 06:20:13;;;;;;;39.55;13.18;;;;;;;-1.10;100.00;98293.13;4206735;27;20312;-71
2021/12/06 06:22:14;;;;;;;34.55;13.38;;;;;;;-1.07;100.00;98308.03;4208599;27;20031;-71
2021/12/06 06:24:14;;;;;;;39.53;14.70;;;;;;;-1.11;100.00;98302.41;4206957;28;20039;-71
2021/12/06 06:26:15;;;;;;;29.42;12.00;;;;;;;-1.10;100.00;98305.91;4207296;28;20434;-71
2021/12/06 06:28:15;;;;;;;30.90;11.45;;;;;;;-1.08;100.00;98307.19;4206265;27;20032;-71
2021/12/06 06:30:16;;;;;;;30.63;10.82;;;;;;;-1.06;100.00;98312.34;4204748;28;20035;-71
2021/12/06 06:32:16;;;;;;;37.90;11.52;;;;;;;-1.11;100.00;98307.03;4208241;27;20036;-71
2021/12/06 06:34:16;;;;;;;34.15;11.68;;;;;;;-1.10;100.00;98301.28;4204668;28;20123;-71
2021/12/06 06:36:17;;;;;;;40.00;14.27;;;;;;;-1.08;100.00;98306.41;4206255;28;21046;-71
2021/12/06 06:38:17;;;;;;;33.75;13.40;;;;;;;-1.09;100.00;98311.03;4207097;28;20359;-71
2021/12/06 06:40:18;;;;;;;42.47;17.23;;;;;;;-1.08;100.00;98311.84;4205878;28;20033;-72
2021/12/06 06:42:23;;;;;;;34.75;12.43;;;;;;;-1.10;100.00;98314.84;4207631;28;20039;-72
2021/12/06 06:44:23;;;;;;;36.75;13.15;;;;;;;-1.11;100.00;98309.75;4208737;28;20040;-72
2021/12/06 06:46:23;;;;;;;34.33;11.70;;;;;;;-1.09;100.00;98316.47;4211022;27;20352;-71
2021/12/06 06:48:24;;;;;;;36.88;13.40;;;;;;;-1.05;100.00;98316.66;4204162;28;20412;-71
2021/12/06 06:50:24;;;;;;;48.97;12.38;;;;;;;-1.00;100.00;98316.53;4207695;28;20048;-71
2021/12/06 06:52:24;;;;;;;45.70;13.77;;;;;;;-1.00;100.00;98316.53;4205895;28;20391;-71
2021/12/06 06:54:25;;;;;;;31.30;11.32;;;;;;;-0.99;100.00;98323.59;4205221;28;20037;-71
2021/12/06 06:56:25;;;;;;;37.75;13.20;;;;;;;-1.01;100.00;98323.88;4206303;27;20180;-71
2021/12/06 06:58:25;;;;;;;32.22;11.00;;;;;;;-1.00;100.00;98328.19;4208333;28;20067;-71
2021/12/06 07:00:29;;;;;;;39.03;9.90;;;;;;;-1.00;100.00;98332.81;4205343;28;20397;-72
2021/12/06 07:02:30;;;;;;;34.22;12.93;;;;;;;-0.97;100.00;98334.94;4203765;28;20048;-72
2021/12/06 07:04:30;;;;;;;36.40;13.70;;;;;;;-0.94;100.00;98332.41;4207204;28;20303;-72
2021/12/06 07:06:30;;;;;;;38.95;14.27;;;;;;;-0.94;100.00;98332.41;4205511;27;20376;-72
2021/12/06 07:08:31;;;;;;;49.05;15.63;;;;;;;-0.96;100.00;98331.13;4211268;27;20136;-72
2021/12/06 07:10:32;;;;;;;35.83;14.25;;;;;;;-0.96;100.00;98331.94;4205371;28;20509;-72
2021/12/06 07:12:35;;;;;;;42.03;14.48;;;;;;;-0.95;100.00;98335.44;4205632;28;20051;-72
2021/12/06 07:14:35;;;;;;;47.10;14.32;;;;;;;-0.94;100.00;98334.34;4205325;28;20037;-71
2021/12/06 07:16:35;;;;;;;36.17;14.43;;;;;;;-0.92;100.00;98343.78;4208270;28;20127;-71
2021/12/06 07:18:36;;;;;;;56.65;16.77;;;;;;;-0.92;100.00;98348.41;4206351;28;20480;-71
2021/12/06 07:20:37;;;;;;;39.47;14.43;;;;;;;-0.94;100.00;98351.44;4204138;28;20043;-71
2021/12/06 07:22:37;;;;;;;44.33;15.75;;;;;;;-0.96;100.00;98342.00;4211473;28;20071;-71
2021/12/06 07:24:38;;;;;;;43.60;15.48;;;;;;;-0.98;100.00;98345.00;4211055;27;20044;-72
2021/12/06 07:26:39;;;;;;;40.40;14.88;;;;;;;-0.96;100.00;98344.72;4205205;28;20036;-72
2021/12/06 07:28:41;;;;;;;38.90;13.38;;;;;;;-0.91;100.00;98347.28;4207757;27;20052;-71
2021/12/06 07:30:41;;;;;;;47.47;13.50;;;;;;;-0.96;100.00;98350.94;4207496;27;20132;-72
2021/12/06 07:32:42;;;;;;;45.58;13.65;;;;;;;-0.94;100.00;98350.63;4211204;27;20355;-72
2021/12/06 07:34:43;;;;;;;39.08;13.65;;;;;;;-0.95;100.00;98357.16;4207562;27;20036;-71
2021/12/06 07:36:44;;;;;;;36.88;13.98;;;;;;;-0.93;100.00;98363.09;4208178;27;20036;-72
2021/12/06 07:38:46;;;;;;;32.28;12.52;;;;;;;-0.92;100.00;98359.25;4209036;27;20446;-72
2021/12/06 07:40:50;;;;;;;43.10;13.80;;;;;;;-0.91;100.00;98358.97;4208149;27;20358;-72
2021/12/06 07:42:50;;;;;;;39.70;13.77;;;;;;;-0.91;100.00;98360.88;4209047;27;20446;-72
2021/12/06 07:44:52;;;;;;;35.00;13.43;;;;;;;-0.93;100.00;98361.19;4209514;27;20055;-72
2021/12/06 07:46:53;;;;;;;37.23;14.83;;;;;;;-0.90;100.00;98367.94;4209719;27;20063;-72
2021/12/06 07:48:54;;;;;;;37.58;13.02;;;;;;;-0.91;100.00;98366.31;4206481;27;20274;-72
2021/12/06 07:50:54;;;;;;;37.00;14.05;;;;;;;-0.90;100.00;98370.66;4207100;27;20097;-71
2021/12/06 07:52:55;;;;;;;41.78;16.90;;;;;;;-0.88;100.00;98373.84;4208920;27;20031;-72
2021/12/06 07:54:58;;;;;;;46.33;20.45;;;;;;;-0.89;100.00;98375.78;4206905;27;20063;-72
2021/12/06 07:56:59;;;;;;;50.15;20.35;;;;;;;-0.86;100.00;98368.91;4214255;27;20039;-72
2021/12/06 07:58:59;;;;;;;48.17;23.35;;;;;;;-0.82;100.00;98374.56;4208081;27;20074;-72
2021/12/06 08:01:00;;;;;;;38.25;15.98;;;;;;;-0.81;100.00;98370.72;4212289;27;20113;-72
2021/12/06 08:03:01;;;;;;;36.70;17.13;;;;;;;-0.79;100.00;98379.38;4206235;27;20260;-72
2021/12/06 08:07:21;;;;;;;33.13;13.18;;;;;;;-0.78;100.00;98376.34;4210810;27;20059;-72
2021/12/06 08:09:21;;;;;;;34.58;15.00;;;;;;;-0.75;100.00;98378.44;4207178;27;20293;-72
2021/12/06 08:11:22;;;;;;;39.85;17.85;;;;;;;-0.76;100.00;98381.47;4207688;27;20117;-72
2021/12/06 08:13:25;;;;;;;44.60;17.27;;;;;;;-0.74;100.00;98380.06;4208575;27;20036;-72
2021/12/06 08:15:26;;;;;;;55.25;18.35;;;;;;;-0.74;100.00;98392.84;4214033;27;20426;-72
2021/12/06 08:17:26;;;;;;;45.63;15.40;;;;;;;-0.78;100.00;98387.22;4209087;27;20129;-72
2021/12/06 08:19:26;;;;;;;43.78;13.75;;;;;;;-0.74;100.00;98392.84;4206147;27;20095;-72
2021/12/06 08:21:27;;;;;;;40.90;14.23;;;;;;;-0.75;100.00;98394.72;4207402;27;20143;-72
2021/12/06 08:23:28;;;;;;;37.15;13.55;;;;;;;-0.75;100.00;98396.66;4215324;27;20049;-72
2021/12/06 08:25:29;;;;;;;38.95;13.35;;;;;;;-0.76;100.00;98389.59;4207098;27;20036;-72
2021/12/06 08:27:29;;;;;;;34.03;11.45;;;;;;;-0.76;100.00;98397.75;4209980;27;20036;-73
2021/12/06 08:29:29;;;;;;;35.45;13.82;;;;;;;-0.74;100.00;98401.00;4205897;27;20036;-73
2021/12/06 08:31:30;;;;;;;40.42;15.65;;;;;;;-0.70;100.00;98407.41;4207992;27;20523;-72
2021/12/06 08:33:31;;;;;;;32.63;14.18;;;;;;;-0.69;100.00;98411.72;4209196;27;20479;-72
2021/12/06 08:35:37;;;;;;;34.20;13.77;;;;;;;-0.73;100.00;98411.56;4206430;27;20395;-72
2021/12/06 08:37:38;;;;;;;38.90;15.30;;;;;;;-0.71;100.00;98411.25;4208112;27;20043;-72
2021/12/06 08:39:39;;;;;;;43.75;15.00;;;;;;;-0.72;100.00;98412.34;4205496;27;20311;-72
2021/12/06 08:41:40;;;;;;;33.60;14.50;;;;;;;-0.72;100.00;98417.78;4210484;27;20040;-72
2021/12/06 08:43:42;;;;;;;31.63;12.95;;;;;;;-0.73;100.00;98418.91;4205958;27;20051;-72
2021/12/06 08:45:47;;;;;;;36.72;15.10;;;;;;;-0.75;100.00;98416.47;4207829;27;20080;-72
2021/12/06 08:47:47;;;;;;;47.60;15.85;;;;;;;-0.71;100.00;98413.97;4207569;27;20048;-72
2021/12/06 08:49:50;;;;;;;40.15;16.60;;;;;;;-0.71;100.00;98414.75;4206920;27;20047;-72
2021/12/06 08:51:55;;;;;;;40.08;17.05;;;;;;;-0.72;100.00;98409.63;4205404;27;20036;-72
2021/12/06 08:54:00;;;;;;;36.65;15.63;;;;;;;-0.70;100.00;98415.56;4209003;27;20040;-72
2021/12/06 08:56:00;;;;;;;36.10;14.95;;;;;;;-0.70;100.00;98415.56;4207981;27;20048;-72
2021/12/06 08:58:01;;;;;;;41.72;16.05;;;;;;;-0.69;100.00;98406.31;4204919;27;20473;-72
2021/12/06 09:00:06;;;;;;;37.08;14.45;;;;;;;-0.67;100.00;98413.03;4209014;27;20308;-72
2021/12/06 09:02:07;;;;;;;42.55;14.60;;;;;;;-0.69;100.00;98409.81;4210114;27;20028;-72
2021/12/06 09:04:12;;;;;;;43.35;16.15;;;;;;;-0.63;100.00;98418.66;4206669;27;20517;-72
2021/12/06 09:06:13;;;;;;;50.80;18.98;;;;;;;-0.63;100.00;98419.47;4210205;27;20042;-72
2021/12/06 09:08:17;;;;;;;41.95;16.55;;;;;;;-0.60;100.00;98428.91;4208151;27;20257;-72
2021/12/06 09:10:17;;;;;;;41.80;16.67;;;;;;;-0.62;100.00;98425.72;4206314;27;20044;-72
2021/12/06 09:12:25;;;;;;;40.67;15.18;;;;;;;-0.63;100.00;98429.53;4213330;27;20417;-72
2021/12/06 09:14:27;;;;;;;35.08;14.18;;;;;;;-0.64;100.00;98430.66;4210000;27;20147;-72
2021/12/06 09:16:28;;;;;;;32.15;13.25;;;;;;;-0.69;100.00;98423.41;4206782;27;20693;-72
2021/12/06 09:18:30;;;;;;;33.20;14.55;;;;;;;-0.71;100.00;98427.53;4205710;27;20036;-72
2021/12/06 09:20:34;;;;;;;33.20;14.90;;;;;;;-0.72;100.00;98426.75;4207518;27;20968;-72
2021/12/06 09:22:35;;;;;;;35.05;15.90;;;;;;;-0.75;100.00;98435.47;4207981;27;20436;-72
2021/12/06 09:24:36;;;;;;;46.67;18.63;;;;;;;-0.75;100.00;98440.13;4206190;27;20071;-72
2021/12/06 09:26:37;;;;;;;61.58;25.25;;;;;;;-0.74;100.00;98441.75;4206585;27;20199;-72
2021/12/06 09:28:38;;;;;;;62.45;23.27;;;;;;;-0.74;100.00;98442.56;4205757;27;20191;-72
2021/12/06 09:30:40;;;;;;;40.55;18.13;;;;;;;-0.72;100.00;98442.25;4208643;27;20527;-72
2021/12/06 09:32:40;;;;;;;40.70;17.65;;;;;;;-0.73;100.00;98441.44;4205730;27;20275;-72
2021/12/06 09:34:44;;;;;;;39.40;16.30;;;;;;;-0.71;100.00;98450.09;4206533;27;20036;-72